createdAt,value
2018-12-15T05:31:47.374Z,40.03
2018-12-15T05:34:16.110Z,43.97
2018-12-15T05:36:44.715Z,41.83
2018-12-15T05:39:13.171Z,43.27
2018-12-15T05:41:42.509Z,41.83
2018-12-15T05:44:11.065Z,41.30
2018-12-15T05:46:40.018Z,41.53
2018-12-15T05:49:08.946Z,39.83
2018-12-15T05:51:37.470Z,40.10
2018-12-15T05:54:05.750Z,42.03
2018-12-15T05:56:34.045Z,38.90
2018-12-15T05:59:02.613Z,38.25
2018-12-15T06:01:31.545Z,41.13
2018-12-15T06:03:59.850Z,38.90
2018-12-15T06:06:28.418Z,41.37
2018-12-15T06:08:56.800Z,39.53
2018-12-15T06:11:25.591Z,39.07
2018-12-15T06:13:53.865Z,39.47
2018-12-15T06:16:22.162Z,40.10
2018-12-15T06:18:51.062Z,38.25
2018-12-15T06:21:19.522Z,36.40
2018-12-15T06:23:48.093Z,37.50
2018-12-15T06:26:16.416Z,36.83
2018-12-15T06:28:45.116Z,42.13
2018-12-15T06:31:13.713Z,40.93
2018-12-15T06:33:42.301Z,39.23
2018-12-15T06:36:11.386Z,40.10
2018-12-15T06:38:39.949Z,36.08
2018-12-15T06:41:08.640Z,38.37
2018-12-15T06:43:37.887Z,36.13
2018-12-15T06:46:06.847Z,38.92
2018-12-15T06:48:38.319Z,37.73
2018-12-15T06:51:06.119Z,40.03
2018-12-15T06:53:34.726Z,53.70
2018-12-15T06:56:03.886Z,53.80
2018-12-15T06:58:32.175Z,53.47
2018-12-15T07:01:00.594Z,54.47
2018-12-15T07:03:29.192Z,53.90
2018-12-15T07:05:57.489Z,54.47
2018-12-15T07:08:25.836Z,53.73
2018-12-15T07:10:54.443Z,52.97
2018-12-15T07:13:23.221Z,54.18
2018-12-15T07:15:52.240Z,54.03
2018-12-15T07:18:20.590Z,54.47
2018-12-15T07:20:49.474Z,54.50
2018-12-15T07:23:18.023Z,54.70
2018-12-15T07:25:47.145Z,54.20
2018-12-15T07:28:15.693Z,53.98
2018-12-15T07:30:44.285Z,55.00
2018-12-15T07:33:13.008Z,55.23
2018-12-15T07:35:41.582Z,54.15
2018-12-15T07:38:09.872Z,54.67
2018-12-15T07:40:38.203Z,55.27
2018-12-15T07:43:06.605Z,54.67
2018-12-15T07:45:35.253Z,54.80
2018-12-15T07:48:03.573Z,54.10
2018-12-15T07:50:31.965Z,54.60
2018-12-15T07:53:00.237Z,56.13
2018-12-15T07:55:28.533Z,56.30
2018-12-15T07:57:57.088Z,55.58
2018-12-15T08:00:25.634Z,55.83
2018-12-15T08:02:54.429Z,55.70
2018-12-15T08:05:23.237Z,55.83
2018-12-15T08:07:52.502Z,56.67
2018-12-15T08:10:24.876Z,56.10
2018-12-15T08:12:57.309Z,56.13
2018-12-15T08:15:26.378Z,56.70
2018-12-15T08:17:54.947Z,55.70
2018-12-15T08:20:23.954Z,56.00
2018-12-15T08:22:52.373Z,55.83
2018-12-15T08:25:20.951Z,55.23
2018-12-15T08:27:49.317Z,56.37
2018-12-15T08:30:17.612Z,60.50
2018-12-15T08:32:46.862Z,59.53
2018-12-15T08:35:15.918Z,61.10
2018-12-15T08:37:44.474Z,60.80
2018-12-15T08:40:13.904Z,58.10
2018-12-15T08:42:42.459Z,57.88
2018-12-15T08:45:11.173Z,58.00
2018-12-15T08:47:39.509Z,57.50
2018-12-15T08:50:08.563Z,57.93
2018-12-15T08:52:37.481Z,57.90
2018-12-15T08:55:06.974Z,58.10
2018-12-15T08:57:35.562Z,57.05
2018-12-15T09:00:05.274Z,57.27
2018-12-15T09:02:33.916Z,57.60
2018-12-15T09:05:03.678Z,57.67
2018-12-15T09:07:32.242Z,57.10
2018-12-15T09:10:00.526Z,56.90
2018-12-15T09:12:29.310Z,57.45
2018-12-15T09:14:58.366Z,57.57
2018-12-15T09:17:26.737Z,57.07
2018-12-15T09:19:55.685Z,57.60
2018-12-15T09:22:24.005Z,56.00
2018-12-15T09:24:52.983Z,56.07
2018-12-15T09:27:21.268Z,53.67
2018-12-15T09:29:49.838Z,54.07
2018-12-15T09:32:18.130Z,53.00
2018-12-15T09:34:46.615Z,54.17
2018-12-15T09:37:15.527Z,55.45
2018-12-15T09:39:43.798Z,54.00
2018-12-15T09:42:12.354Z,52.58
2018-12-15T09:44:41.367Z,57.45
2018-12-15T09:47:10.345Z,57.62
2018-12-15T09:49:39.966Z,58.07
2018-12-15T09:52:09.164Z,57.90
2018-12-15T09:54:38.253Z,58.45
2018-12-15T09:57:06.541Z,57.17
2018-12-15T09:59:35.123Z,57.27
2018-12-15T10:02:03.948Z,56.30
2018-12-15T10:04:34.010Z,34.13
2018-12-15T10:07:02.664Z,47.77
2018-12-15T10:09:31.270Z,47.40
2018-12-15T10:11:59.827Z,46.30
2018-12-15T10:14:28.431Z,45.43
2018-12-15T10:16:56.972Z,45.67
2018-12-15T10:19:25.402Z,47.80
2018-12-15T10:21:54.958Z,12.78
2018-12-15T10:24:23.506Z,44.35
2018-12-15T10:26:51.872Z,44.10
2018-12-15T10:29:25.570Z,43.33
2018-12-15T10:31:59.695Z,43.40
2018-12-15T10:34:27.975Z,43.30
2018-12-15T10:36:56.295Z,43.57
2018-12-15T10:39:24.875Z,45.55
2018-12-15T10:41:53.178Z,43.30
2018-12-15T10:44:21.894Z,42.47
2018-12-15T10:46:50.218Z,43.10
2018-12-15T10:49:18.905Z,46.50
2018-12-15T10:51:47.297Z,46.67
2018-12-15T10:54:16.185Z,45.33
2018-12-15T10:56:46.171Z,45.33
2018-12-15T10:59:14.426Z,44.10
2018-12-15T11:01:43.318Z,45.25
2018-12-15T11:04:11.624Z,46.50
2018-12-15T11:06:40.174Z,44.60
2018-12-15T11:09:09.195Z,44.90
2018-12-15T11:11:38.496Z,44.95
2018-12-15T11:14:07.268Z,45.90
2018-12-15T11:16:35.974Z,46.97
2018-12-15T11:19:05.333Z,18.07
2018-12-15T11:21:33.881Z,22.90
2018-12-15T11:24:02.946Z,20.20
2018-12-15T11:26:32.195Z,19.95
2018-12-15T11:29:00.842Z,18.37
2018-12-15T11:31:29.110Z,48.10
2018-12-15T11:33:57.675Z,48.25
2018-12-15T11:36:26.245Z,48.10
2018-12-15T11:38:54.654Z,46.70
2018-12-15T11:41:23.502Z,16.17
2018-12-15T11:43:51.795Z,24.43
2018-12-15T11:46:20.775Z,22.75
2018-12-15T11:48:49.550Z,22.87
2018-12-15T11:51:18.505Z,23.70
2018-12-15T11:53:47.293Z,23.97
2018-12-15T11:56:17.574Z,22.10
2018-12-15T11:58:45.943Z,21.80
2018-12-15T12:01:14.465Z,26.20
